Terminal Aerodrome Forecast
Issued by NWS

Home | Current Version | Previous Version | Text Only | Print | Product List | Glossary On
Versions: 1 2 3 4 5 6 7 8 9 10 11 12 13 14
094
FTUS43 KUNR 230520
TAFGCC
TAF
KGCC 230520Z 2306/2406 11010KT P6SM SCT250
     FM231900 02020KT P6SM -SHRA OVC030
     FM232100 34020G31KT P6SM -SHRA OVC008
     FM240300 34015KT 3SM -SNRA OVC003=

USA.gov is the U.S. government's official web portal to all federal, state and local government web resources and services.